Data for 12/26/2009

Time Sea-Level Adjusted Pressure Absolute Pressure Temperature Relative Humidity Dew Point   
(mb) (inHg) (mb) (inHg) (C) (F) (%) (C) (F)
00:05 1024 30.24 853 25.19 -8.8 16.2 84 -11 12.2
00:10 1024 30.24 853 25.19 -8.8 16.1 83 -11.1 12
00:15 1024 30.24 853 25.19 -8.8 16.2 83 -11.2 11.9
00:20 1024 30.24 853 25.19 -8.7 16.3 83 -11.1 12
00:25 1024 30.24 853 25.19 -8.6 16.4 83 -11.1 12
00:30 1024 30.24 853 25.19 -8.8 16.1 83 -11.3 11.7
00:35 1024 30.24 853 25.19 -8.8 16.2 82 -11.3 11.6
00:40 1024 30.24 853 25.19 -8.7 16.4 83 -11.1 12.1
00:45 1024 30.24 853 25.19 -8.5 16.7 83 -10.9 12.4
00:50 1024 30.24 853 25.19 -8.5 16.6 83 -11 12.2
00:55 1024 30.24 853 25.19 -8.6 16.6 82 -11.1 12.1
01:00 1024 30.24 853 25.19 -8.6 16.5 82 -11.2 11.9
01:05 1024 30.24 853 25.19 -8.5 16.7 82 -11 12.1
01:10 1024 30.24 853 25.19 -8.5 16.8 82 -10.9 12.3
01:15 1024 30.24 853 25.19 -8.6 16.6 85 -10.7 12.8
01:20 1024 30.24 853 25.19 -8.5 16.7 84 -10.7 12.7
01:25 1024 30.24 853 25.19 -8.4 16.9 83 -10.8 12.6
01:30 1024 30.24 853 25.19 -8.2 17.2 83 -10.6 13
01:35 1024 30.24 853 25.19 -8.2 17.3 82 -10.7 12.8
01:40 1024 30.24 853 25.19 -8.1 17.5 78 -11.2 11.8
01:45 1024 30.24 853 25.19 -8.4 16.8 80 -11.4 11.5
01:50 1024 30.24 853 25.19 -8.9 16.1 82 -11.3 11.6
01:55 1024 30.24 853 25.19 -8.9 16 82 -11.5 11.3
02:00 1024 30.24 853 25.19 -9.1 15.7 83 -11.4 11.5
02:05 1024 30.24 853 25.19 -9.2 15.5 85 -11.3 11.6
02:10 1024 30.24 853 25.19 -9 15.7 86 -10.9 12.4
02:15 1024 30.24 853 25.19 -8.7 16.4 83 -11 12.2
02:20 1024 30.24 853 25.19 -8.9 16 85 -10.9 12.3
02:25 1024 30.24 853 25.19 -9 15.7 85 -11.2 11.9
02:30 1024 30.24 853 25.19 -9.1 15.7 80 -11.9 10.5
02:35 1024 30.24 853 25.19 -9.4 15.1 82 -11.9 10.5
02:40 1024 30.24 853 25.19 -9.4 15.1 82 -12 10.4
02:45 1024 30.24 853 25.19 -9.5 14.9 80 -12.3 9.9
02:50 1024 30.24 853 25.19 -9.9 14.2 82 -12.4 9.6
02:55 1024 30.24 853 25.19 -9.7 14.5 83 -12 10.4
03:00 1024 30.24 853 25.19 -9.1 15.7 82 -11.6 11.1
03:05 1024 30.24 853 25.19 -8.8 16.1 79 -11.8 10.8
03:10 1024 30.24 853 25.19 -9 15.8 82 -11.5 11.3
03:15 1024 30.24 853 25.19 -8.8 16.1 82 -11.4 11.5
03:20 1024 30.24 853 25.19 -8.9 15.9 83 -11.3 11.7
03:25 1024 30.24 853 25.19 -9 15.8 83 -11.3 11.6
03:30 1024 30.24 853 25.19 -9 15.8 81 -11.8 10.8
03:35 1024 30.24 853 25.19 -9.3 15.3 84 -11.5 11.4
03:40 1024 30.24 853 25.19 -9.2 15.4 84 -11.4 11.5
03:45 1024 30.24 853 25.19 -9.5 14.9 83 -11.9 10.7
03:50 1024 30.24 853 25.19 -10 14.1 86 -11.9 10.6
03:55 1024 30.24 853 25.19 -10.1 13.9 87 -11.8 10.7
04:00 1024 30.24 853 25.19 -10.1 13.9 87 -11.8 10.8
04:05 1024 30.24 853 25.19 -10.3 13.5 89 -11.8 10.8
04:10 1024 30.24 853 25.19 -10.3 13.4 87 -12.1 10.2
04:15 1024 30.24 853 25.19 -10.9 12.4 88 -12.5 9.5
04:20 1024 30.24 853 25.19 -11.1 12 88 -12.7 9.2
04:25 1024 30.24 853 25.19 -11.1 12 86 -13 8.7
04:30 1024 30.24 853 25.19 -11.4 11.5 87 -13.1 8.4
04:35 1024 30.24 853 25.19 -11.5 11.3 88 -13 8.5
04:40 1024 30.24 853 25.19 -11.2 11.8 85 -13.2 8.2
04:45 1024 30.24 853 25.19 -11.4 11.4 86 -13.3 8
04:50 1024 30.24 853 25.19 -11.7 10.9 86 -13.6 7.6
04:55 1024 30.24 853 25.19 -12 10.4 87 -13.7 7.3
05:00 1024 30.24 853 25.19 -12 10.3 86 -13.9 7.1
05:05 1024 30.24 853 25.19 -11.9 10.5 87 -13.7 7.3
05:10 1024 30.24 853 25.19 -11.6 11.2 85 -13.6 7.6
05:15 1024 30.24 853 25.19 -11.6 11.1 86 -13.6 7.6
05:20 1024 30.24 853 25.19 -11.6 11.1 86 -13.5 7.7
05:25 1024 30.24 853 25.19 -11.5 11.3 87 -13.3 8
05:30 1024 30.24 853 25.19 -11.3 11.6 86 -13.1 8.3
05:35 1024 30.24 853 25.19 -11.2 11.8 87 -12.9 8.7
05:40 1024 30.24 853 25.19 -11.2 11.9 87 -12.9 8.8
05:45 1024 30.24 853 25.19 -11.2 11.9 88 -12.8 8.9
05:50 1024 30.24 853 25.19 -11.1 11.9 88 -12.7 9.1
05:55 1024 30.24 853 25.19 -11.1 12 88 -12.7 9.2
06:00 1024 30.24 853 25.19 -11.4 11.5 89 -12.9 8.8
06:05 1024 30.24 853 25.19 -11.7 10.9 89 -13.1 8.4
06:10 1024 30.24 853 25.19 -11.7 10.9 89 -13.2 8.3
06:15 1024 30.24 853 25.19 -11.9 10.6 90 -13.3 8.1
06:20 1024 30.24 853 25.19 -11.6 11.1 89 -13.1 8.5
06:25 1024 30.24 853 25.19 -11.2 11.8 89 -12.7 9.1
06:30 1024 30.24 853 25.19 -10.9 12.4 87 -12.7 9.1
06:35 1024 30.24 853 25.19 -10.9 12.3 86 -12.9 8.8
06:40 1024 30.24 853 25.19 -11.3 11.6 86 -13.3 8.1
06:45 1024 30.24 853 25.19 -11.6 11.2 87 -13.3 8.1
06:50 1024 30.24 853 25.19 -11.4 11.5 86 -13.3 8
06:55 1024 30.24 853 25.19 -11.8 10.9 86 -13.6 7.5
07:00 1024 30.24 853 25.19 -12 10.4 87 -13.7 7.3
07:05 1024 30.24 853 25.19 -12 10.4 87 -13.8 7.2
07:10 1024 30.24 853 25.19 -12.1 10.2 88 -13.7 7.3
07:15 1024 30.24 853 25.19 -12.1 10.2 87 -13.9 7
07:20 1024 30.24 853 25.19 -12 10.3 88 -13.7 7.4
07:25 1024 30.24 853 25.19 -11.8 10.7 87 -13.6 7.5
07:30 1024 30.24 853 25.19 -11.9 10.6 87 -13.7 7.4
07:35 1024 30.24 853 25.19 -12 10.4 88 -13.6 7.6
07:40 1024 30.24 853 25.19 -11.9 10.7 85 -13.9 7
07:45 1024 30.24 853 25.19 -11.9 10.6 81 -14.5 5.8
07:50 1024 30.24 853 25.19 -13.1 8.5 84 -15.2 4.6
07:55 1024 30.24 853 25.19 -13.5 7.7 88 -15.1 4.8
08:00 1024 30.24 853 25.19 -12.9 8.8 86 -14.7 5.5
08:05 1024 30.24 853 25.19 -12.1 10.3 84 -14.3 6.3
08:10 1024 30.24 853 25.19 -11.6 11.1 80 -14.3 6.2
08:15 1024 30.24 853 25.19 -11.8 10.7 79 -14.8 5.3
08:20 1024 30.24 853 25.19 -12 10.5 80 -14.7 5.5
08:25 1024 30.24 853 25.19 -11.9 10.6 79 -14.9 5.2
08:30 1024 30.24 853 25.19 -12.4 9.8 80 -15.2 4.6
08:35 1024 30.24 853 25.19 -12.8 9 86 -14.7 5.5
08:40 1024 30.24 853 25.19 -12.3 9.8 82 -14.7 5.5
08:45 1024 30.24 853 25.19 -11.9 10.7 82 -14.4 6.1
08:50 1024 30.24 853 25.19 -11.8 10.8 81 -14.3 6.2
08:55 1024 30.24 853 25.19 -11.5 11.4 79 -14.5 5.9
09:00 1024 30.24 853 25.19 -11.1 12.1 79 -14.1 6.7
09:05 1024 30.24 853 25.19 -10.8 12.5 77 -14.1 6.6
09:10 1024 30.24 853 25.19 -10.8 12.6 77 -14.1 6.7
09:15 1024 30.24 853 25.19 -11 12.3 78 -14.1 6.5
09:20 1024 30.24 853 25.19 -10.5 13.1 76 -14 6.9
09:25 1024 30.24 853 25.19 -10.1 13.9 73 -14 6.9
09:30 1024 30.24 854 25.22 -10 14 75 -13.7 7.4
09:35 1024 30.24 854 25.22 -10.1 13.8 75 -13.8 7.2
09:40 1024 30.24 854 25.22 -9.8 14.4 74 -13.7 7.4
09:45 1024 30.24 854 25.22 -9.1 15.6 71 -13.5 7.7
09:50 1025 30.27 854 25.22 -9 15.9 71 -13.3 8.1
09:55 1024 30.24 854 25.22 -9.1 15.7 71 -13.4 7.9
10:00 1025 30.27 854 25.22 -9 15.7 72 -13.3 8.1
10:05 1025 30.27 854 25.22 -9.1 15.6 72 -13.2 8.2
10:10 1025 30.27 854 25.22 -8.9 16.1 71 -13.2 8.3
10:15 1025 30.27 854 25.22 -8.1 17.4 69 -12.9 8.7
10:20 1025 30.27 854 25.22 -7.6 18.4 67 -12.6 9.3
10:25 1025 30.27 854 25.22 -7.5 18.4 67 -12.7 9.1
10:30 1025 30.27 854 25.22 -7.6 18.3 67 -12.8 9
10:35 1025 30.27 854 25.22 -7.6 18.3 65 -13 8.6
10:40 1025 30.27 854 25.22 -7.4 18.8 65 -12.8 8.9
10:45 1025 30.27 854 25.22 -7.1 19.2 64 -12.7 9.1
10:50 1025 30.27 854 25.22 -7.1 19.3 65 -12.6 9.3
10:55 1025 30.27 854 25.22 -7 19.5 64 -12.7 9.1
11:00 1025 30.27 854 25.22 -6.9 19.5 65 -12.5 9.5
11:05 1024 30.24 854 25.22 -6.9 19.6 63 -12.8 9
11:10 1024 30.24 854 25.22 -6.4 20.5 61 -12.8 9
11:15 1024 30.24 854 25.22 -6.9 19.7 62 -12.9 8.8
11:20 1024 30.24 854 25.22 -6.8 19.8 61 -13 8.6
11:25 1024 30.24 854 25.22 -6.4 20.4 61 -12.7 9.2
11:30 1024 30.24 853 25.19 -6.6 20.2 62 -12.7 9.2
11:35 1024 30.24 853 25.19 -6.5 20.3 60 -13 8.7
11:40 1024 30.24 853 25.19 -6.6 20.2 62 -12.6 9.3
11:45 1024 30.24 853 25.19 -6.5 20.3 60 -13 8.5
11:50 1024 30.24 853 25.19 -6.1 20.9 60 -12.7 9.2
11:55 1024 30.24 853 25.19 -6.3 20.6 62 -12.5 9.4
12:00 1024 30.24 853 25.19 -6.4 20.5 62 -12.6 9.4
12:05 1024 30.24 853 25.19 -6.5 20.3 63 -12.4 9.7
12:10 1024 30.24 853 25.19 -6.1 21 60 -12.7 9.1
12:15 1024 30.24 853 25.19 -5.9 21.4 60 -12.5 9.6
12:20 1024 30.24 853 25.19 -5.9 21.3 60 -12.6 9.3
12:25 1024 30.24 853 25.19 -5.6 22 59 -12.5 9.6
12:30 1024 30.24 853 25.19 -5.5 22 59 -12.3 9.8
12:35 1024 30.24 853 25.19 -5.3 22.5 57 -12.6 9.4
12:40 1024 30.24 853 25.19 -5.3 22.5 59 -12.1 10.3
12:45 1024 30.24 853 25.19 -5.5 22.2 58 -12.5 9.5
12:50 1024 30.24 853 25.19 -5.5 22.2 59 -12.3 9.8
12:55 1024 30.24 853 25.19 -5.4 22.3 58 -12.4 9.7
13:00 1024 30.24 853 25.19 -5.6 22 59 -12.2 10
13:05 1024 30.24 853 25.19 -5.3 22.5 57 -12.5 9.5
13:10 1024 30.24 853 25.19 -5.3 22.4 58 -12.4 9.7
13:15 1023 30.21 853 25.19 -5 22.9 57 -12.4 9.7
13:20 1023 30.21 853 25.19 -4.9 23.1 56 -12.4 9.7
13:25 1023 30.21 853 25.19 -5.1 22.8 56 -12.5 9.4
13:30 1023 30.21 853 25.19 -5.4 22.3 58 -12.3 9.8
13:35 1023 30.21 853 25.19 -5.3 22.5 56 -12.7 9.1
13:40 1023 30.21 853 25.19 -5.3 22.5 56 -12.6 9.2
13:45 1023 30.21 853 25.19 -5.6 21.9 57 -12.8 9
13:50 1023 30.21 853 25.19 -5.7 21.7 58 -12.8 9
13:55 1023 30.21 853 25.19 -5.9 21.3 58 -12.9 8.9
14:00 1023 30.21 852 25.16 -6.4 20.6 59 -13.1 8.4
14:05 1023 30.21 852 25.16 -6.8 19.7 61 -13.1 8.4
14:10 1023 30.21 852 25.16 -7.2 19.1 63 -13.1 8.5
14:15 1023 30.21 852 25.16 -6.9 19.5 62 -13 8.6
14:20 1023 30.21 852 25.16 -6.7 20 60 -13.2 8.3
14:25 1023 30.21 852 25.16 -6.7 19.9 61 -13 8.5
14:30 1023 30.21 852 25.16 -6.9 19.6 62 -13.1 8.5
14:35 1023 30.21 852 25.16 -6.6 20.1 61 -13 8.6
14:40 1023 30.21 852 25.16 -6.2 20.8 61 -12.6 9.2
14:45 1023 30.21 852 25.16 -5.7 21.8 59 -12.4 9.6
14:50 1023 30.21 852 25.16 -5.4 22.3 57 -12.5 9.4
14:55 1023 30.21 852 25.16 -5.1 22.8 57 -12.4 9.7
15:00 1023 30.21 852 25.16 -5.2 22.7 57 -12.3 9.8
15:05 1023 30.21 852 25.16 -5.2 22.7 58 -12.2 10
15:10 1023 30.21 852 25.16 -5.6 22 59 -12.4 9.7
15:15 1023 30.21 852 25.16 -5.7 21.8 59 -12.6 9.4
15:20 1023 30.21 852 25.16 -5.4 22.2 58 -12.4 9.6
15:25 1023 30.21 852 25.16 -5.5 22.1 59 -12.4 9.7
15:30 1023 30.21 852 25.16 -5.3 22.4 58 -12.4 9.7
15:35 1023 30.21 852 25.16 -5.2 22.6 58 -12.3 9.9
15:40 1023 30.21 852 25.16 -5.3 22.4 58 -12.4 9.7
15:45 1023 30.21 852 25.16 -5.6 21.9 59 -12.4 9.8
15:50 1023 30.21 852 25.16 -6 21.2 61 -12.5 9.6
15:55 1023 30.21 852 25.16 -6 21.2 60 -12.5 9.5
16:00 1023 30.21 852 25.16 -6.3 20.7 61 -12.6 9.4
16:05 1023 30.21 852 25.16 -6.3 20.7 61 -12.5 9.5
16:10 1023 30.21 852 25.16 -6.1 20.9 62 -12.4 9.7
16:15 1023 30.21 852 25.16 -6.3 20.7 62 -12.4 9.6
16:20 1023 30.21 852 25.16 -6.2 20.8 61 -12.6 9.3
16:25 1023 30.21 852 25.16 -6.2 20.9 61 -12.5 9.6
16:30 1023 30.21 852 25.16 -6.3 20.6 63 -12.3 9.8
16:35 1023 30.21 852 25.16 -6.8 19.8 65 -12.3 9.9
16:40 1023 30.21 852 25.16 -7.6 18.4 68 -12.4 9.7
16:45 1023 30.21 852 25.16 -8.1 17.3 70 -12.7 9.2
16:50 1023 30.21 852 25.16 -8.4 17 71 -12.7 9.2
16:55 1023 30.21 852 25.16 -8.3 17 71 -12.7 9.1
17:00 1023 30.21 852 25.16 -8.2 17.3 71 -12.6 9.3
17:05 1023 30.21 852 25.16 -8.1 17.4 70 -12.6 9.3
17:10 1023 30.21 852 25.16 -8.4 16.9 72 -12.5 9.4
17:15 1023 30.21 852 25.16 -8.9 16 73 -12.8 8.9
17:20 1023 30.21 852 25.16 -9.4 15.1 75 -13 8.6
17:25 1023 30.21 852 25.16 -9.8 14.3 77 -13.1 8.4
17:30 1023 30.21 852 25.16 -10.2 13.7 78 -13.2 8.2
17:35 1023 30.21 852 25.16 -10.7 12.8 80 -13.4 7.9
17:40 1022 30.18 852 25.16 -10.7 12.8 81 -13.4 7.9
17:45 1023 30.21 852 25.16 -10.6 12.9 79 -13.5 7.6
17:50 1023 30.21 852 25.16 -10.9 12.3 82 -13.4 7.9
17:55 1023 30.21 852 25.16 -10.6 13 82 -13 8.5
18:00 1023 30.21 852 25.16 -10.1 13.8 81 -12.8 8.9
18:05 1023 30.21 852 25.16 -10 14.1 80 -12.8 8.9
18:10 1023 30.21 852 25.16 -10.1 13.9 81 -12.7 9.1
18:15 1023 30.21 852 25.16 -10.4 13.4 81 -13.1 8.5
18:20 1023 30.21 852 25.16 -10.1 13.8 79 -13.1 8.4
18:25 1023 30.21 852 25.16 -10.2 13.6 80 -13.1 8.4
18:30 1023 30.21 852 25.16 -10.2 13.6 81 -12.9 8.8
18:35 1023 30.21 852 25.16 -10.2 13.6 81 -12.8 8.9
18:40 1023 30.21 852 25.16 -10.2 13.6 80 -13 8.5
18:45 1023 30.21 852 25.16 -10.2 13.6 82 -12.8 9
18:50 1023 30.21 852 25.16 -10.1 13.9 79 -13 8.6
18:55 1023 30.21 852 25.16 -10.4 13.3 84 -12.6 9.2
19:00 1023 30.21 852 25.16 -10.8 12.6 84 -13.1 8.5
19:05 1023 30.21 852 25.16 -11.3 11.7 84 -13.4 7.9
19:10 1023 30.21 852 25.16 -10.9 12.4 85 -13 8.6
19:15 1023 30.21 852 25.16 -10.2 13.6 80 -13.1 8.4
19:20 1023 30.21 852 25.16 -10.8 12.5 82 -13.4 7.9
19:25 1023 30.21 852 25.16 -11.9 10.5 84 -14.1 6.7
19:30 1023 30.21 852 25.16 -12 10.5 87 -13.8 7.2
19:35 1023 30.21 852 25.16 -11.6 11.1 84 -13.8 7.2
19:40 1023 30.21 852 25.16 -11.7 10.9 85 -13.8 7.2
19:45 1023 30.21 852 25.16 -11.7 11 86 -13.5 7.6
19:50 1023 30.21 852 25.16 -11.2 11.9 82 -13.7 7.4
19:55 1023 30.21 852 25.16 -11 12.1 84 -13.2 8.2
20:00 1023 30.21 852 25.16 -10.8 12.7 83 -13.1 8.3
20:05 1023 30.21 852 25.16 -10.9 12.4 82 -13.5 7.8
20:10 1023 30.21 852 25.16 -11 12.2 82 -13.5 7.7
20:15 1023 30.21 852 25.16 -11.2 11.9 83 -13.5 7.6
20:20 1023 30.21 852 25.16 -11.5 11.4 85 -13.5 7.6
20:25 1023 30.21 852 25.16 -11.3 11.6 85 -13.4 7.9
20:30 1023 30.21 852 25.16 -11.1 12.1 84 -13.3 8.1
20:35 1023 30.21 852 25.16 -11.2 11.9 84 -13.4 7.9
20:40 1023 30.21 852 25.16 -11.4 11.5 86 -13.4 7.9
20:45 1023 30.21 852 25.16 -11.5 11.3 86 -13.5 7.7
20:50 1023 30.21 852 25.16 -11.7 10.9 86 -13.7 7.4
20:55 1023 30.21 852 25.16 -12 10.5 86 -13.8 7.1
21:00 1023 30.21 852 25.16 -12.2 10.1 86 -14.1 6.7
21:05 1023 30.21 852 25.16 -12.2 10.1 86 -14 6.7
21:10 1023 30.21 852 25.16 -12.1 10.3 87 -13.8 7.1
21:15 1023 30.21 852 25.16 -11.9 10.5 87 -13.6 7.4
21:20 1023 30.21 852 25.16 -11.7 11 86 -13.6 7.5
21:25 1023 30.21 852 25.16 -11.3 11.6 86 -13.2 8.3
21:30 1023 30.21 852 25.16 -11.3 11.6 86 -13.2 8.2
21:35 1023 30.21 852 25.16 -11.7 10.9 89 -13.2 8.2
21:40 1023 30.21 852 25.16 -11.5 11.2 87 -13.3 8.1
21:45 1023 30.21 852 25.16 -11.6 11.1 88 -13.2 8.3
21:50 1023 30.21 852 25.16 -11.8 10.8 88 -13.5 7.8
21:55 1023 30.21 852 25.16 -12.2 10.1 89 -13.7 7.3
22:00 1023 30.21 852 25.16 -11.9 10.6 89 -13.3 8
22:05 1023 30.21 852 25.16 -11.8 10.8 87 -13.5 7.7
22:10 1023 30.21 852 25.16 -11.9 10.6 86 -13.8 7.1
22:15 1023 30.21 852 25.16 -12.3 9.9 89 -13.8 7.1
22:20 1023 30.21 852 25.16 -12.3 10 88 -13.9 7.1
22:25 1023 30.21 852 25.16 -12.3 9.9 87 -14 6.8
22:30 1023 30.21 852 25.16 -12.3 9.8 87 -14 6.7
22:35 1023 30.21 852 25.16 -12.2 10.1 87 -14 6.8
22:40 1023 30.21 852 25.16 -12.1 10.3 89 -13.6 7.6
22:45 1023 30.21 852 25.16 -11.8 10.8 88 -13.4 7.9
22:50 1023 30.21 852 25.16 -11.6 11.1 88 -13.2 8.2
22:55 1023 30.21 852 25.16 -11.6 11.2 88 -13.1 8.4
23:00 1023 30.21 852 25.16 -11.6 11.2 88 -13.2 8.2
23:05 1023 30.21 852 25.16 -11.7 10.9 88 -13.3 8
23:10 1023 30.21 852 25.16 -11.9 10.7 88 -13.5 7.8
23:15 1023 30.21 852 25.16 -12.3 9.9 89 -13.7 7.3
23:20 1023 30.21 852 25.16 -12.7 9.2 90 -13.9 6.9
23:25 1023 30.21 852 25.16 -12.9 8.8 88 -14.5 5.9
23:30 1023 30.21 852 25.16 -13.1 8.4 88 -14.7 5.5
23:35 1023 30.21 852 25.16 -13.2 8.3 88 -14.7 5.5
23:40 1023 30.21 852 25.16 -13.1 8.5 88 -14.6 5.7
23:45 1023 30.21 852 25.16 -12.5 9.5 86 -14.3 6.2
23:50 1023 30.21 852 25.16 -12.2 10 85 -14.2 6.4
23:55 1023 30.21 852 25.16 -12.4 9.7 86 -14.2 6.4
24:00 1023 30.21 852 25.16 -12.5 9.5 87 -14.2 6.4